sensor_id;sensor_type;location;lat;lon;timestamp;temperature;humidity
37410;DHT22;23275;48.914;12.566;2023-03-23T00:00:54;7.80;99.90
37410;DHT22;23275;48.914;12.566;2023-03-23T00:03:21;7.70;99.90
37410;DHT22;23275;48.914;12.566;2023-03-23T00:05:48;7.70;99.90
37410;DHT22;23275;48.914;12.566;2023-03-23T00:08:18;7.60;99.90
37410;DHT22;23275;48.914;12.566;2023-03-23T00:10:48;7.50;99.90
37410;DHT22;23275;48.914;12.566;2023-03-23T00:13:14;7.50;99.90
37410;DHT22;23275;48.914;12.566;2023-03-23T00:15:45;7.50;99.90
37410;DHT22;23275;48.914;12.566;2023-03-23T00:18:11;7.50;99.90
37410;DHT22;23275;48.914;12.566;2023-03-23T00:20:46;7.50;99.90
37410;DHT22;23275;48.914;12.566;2023-03-23T00:23:18;7.50;99.90
37410;DHT22;23275;48.914;12.566;2023-03-23T00:25:48;7.50;99.90
37410;DHT22;23275;48.914;12.566;2023-03-23T00:28:15;7.40;99.90
37410;DHT22;23275;48.914;12.566;2023-03-23T00:30:41;7.40;99.90
37410;DHT22;23275;48.914;12.566;2023-03-23T00:33:10;7.40;99.90
37410;DHT22;23275;48.914;12.566;2023-03-23T00:35:39;7.40;99.90
37410;DHT22;23275;48.914;12.566;2023-03-23T00:38:05;7.40;99.90
37410;DHT22;23275;48.914;12.566;2023-03-23T00:40:31;7.40;99.90
37410;DHT22;23275;48.914;12.566;2023-03-23T00:42:56;7.40;99.90
37410;DHT22;23275;48.914;12.566;2023-03-23T00:45:22;7.40;99.90
37410;DHT22;23275;48.914;12.566;2023-03-23T00:47:49;7.40;99.90
37410;DHT22;23275;48.914;12.566;2023-03-23T00:50:16;7.40;99.90
37410;DHT22;23275;48.914;12.566;2023-03-23T00:52:43;7.50;99.90
37410;DHT22;23275;48.914;12.566;2023-03-23T00:55:09;7.50;99.90
37410;DHT22;23275;48.914;12.566;2023-03-23T00:57:35;7.40;99.90
37410;DHT22;23275;48.914;12.566;2023-03-23T01:00:01;7.40;99.90
37410;DHT22;23275;48.914;12.566;2023-03-23T01:02:26;7.40;99.90
37410;DHT22;23275;48.914;12.566;2023-03-23T01:04:52;7.40;99.90
37410;DHT22;23275;48.914;12.566;2023-03-23T01:07:19;7.40;99.90
37410;DHT22;23275;48.914;12.566;2023-03-23T01:09:46;7.40;99.90
37410;DHT22;23275;48.914;12.566;2023-03-23T01:12:12;7.40;99.90
37410;DHT22;23275;48.914;12.566;2023-03-23T01:14:38;7.40;99.90
37410;DHT22;23275;48.914;12.566;2023-03-23T01:17:03;7.50;99.90
37410;DHT22;23275;48.914;12.566;2023-03-23T01:19:29;7.50;99.90
37410;DHT22;23275;48.914;12.566;2023-03-23T01:21:55;7.50;99.90
37410;DHT22;23275;48.914;12.566;2023-03-23T01:24:20;7.50;99.90
37410;DHT22;23275;48.914;12.566;2023-03-23T01:26:46;7.30;99.90
37410;DHT22;23275;48.914;12.566;2023-03-23T01:29:12;7.30;99.90
37410;DHT22;23275;48.914;12.566;2023-03-23T01:31:39;7.30;99.90
37410;DHT22;23275;48.914;12.566;2023-03-23T01:34:05;7.20;99.90
37410;DHT22;23275;48.914;12.566;2023-03-23T01:36:31;7.20;99.90
37410;DHT22;23275;48.914;12.566;2023-03-23T01:38:59;7.10;99.90
37410;DHT22;23275;48.914;12.566;2023-03-23T01:41:26;7.00;99.90
37410;DHT22;23275;48.914;12.566;2023-03-23T01:44:05;6.80;99.90
37410;DHT22;23275;48.914;12.566;2023-03-23T01:46:34;6.70;99.90
37410;DHT22;23275;48.914;12.566;2023-03-23T01:49:28;6.60;99.90
37410;DHT22;23275;48.914;12.566;2023-03-23T01:51:58;6.60;99.90
37410;DHT22;23275;48.914;12.566;2023-03-23T01:54:26;6.50;99.90
37410;DHT22;23275;48.914;12.566;2023-03-23T01:57:06;6.40;99.90
37410;DHT22;23275;48.914;12.566;2023-03-23T01:59:33;6.40;99.90
37410;DHT22;23275;48.914;12.566;2023-03-23T02:02:00;6.40;99.90
37410;DHT22;23275;48.914;12.566;2023-03-23T02:04:27;6.40;99.90
37410;DHT22;23275;48.914;12.566;2023-03-23T02:06:54;6.50;99.90
37410;DHT22;23275;48.914;12.566;2023-03-23T02:09:21;6.50;99.90
37410;DHT22;23275;48.914;12.566;2023-03-23T02:11:48;6.60;99.90
37410;DHT22;23275;48.914;12.566;2023-03-23T02:14:16;6.70;99.90
37410;DHT22;23275;48.914;12.566;2023-03-23T02:17:10;6.80;99.90
37410;DHT22;23275;48.914;12.566;2023-03-23T02:23:07;6.80;99.90
37410;DHT22;23275;48.914;12.566;2023-03-23T02:26:09;6.80;99.90
37410;DHT22;23275;48.914;12.566;2023-03-23T02:36:53;7.00;99.90
37410;DHT22;23275;48.914;12.566;2023-03-23T02:39:23;7.00;99.90
37410;DHT22;23275;48.914;12.566;2023-03-23T02:42:04;7.10;99.90
37410;DHT22;23275;48.914;12.566;2023-03-23T02:44:31;7.10;99.90
37410;DHT22;23275;48.914;12.566;2023-03-23T02:47:00;7.10;99.90
37410;DHT22;23275;48.914;12.566;2023-03-23T02:49:29;7.10;99.90
37410;DHT22;23275;48.914;12.566;2023-03-23T02:51:58;7.10;99.90
37410;DHT22;23275;48.914;12.566;2023-03-23T02:54:25;7.20;99.90
37410;DHT22;23275;48.914;12.566;2023-03-23T02:56:53;7.20;99.90
37410;DHT22;23275;48.914;12.566;2023-03-23T02:59:20;7.30;99.90
37410;DHT22;23275;48.914;12.566;2023-03-23T03:01:50;7.30;99.90
37410;DHT22;23275;48.914;12.566;2023-03-23T03:04:19;7.30;99.90
37410;DHT22;23275;48.914;12.566;2023-03-23T03:06:58;7.30;99.90
37410;DHT22;23275;48.914;12.566;2023-03-23T03:12:08;7.30;99.90
37410;DHT22;23275;48.914;12.566;2023-03-23T03:14:48;7.40;99.90
37410;DHT22;23275;48.914;12.566;2023-03-23T03:17:19;7.40;99.90
37410;DHT22;23275;48.914;12.566;2023-03-23T03:19:48;7.40;99.90
37410;DHT22;23275;48.914;12.566;2023-03-23T03:22:17;7.40;99.90
37410;DHT22;23275;48.914;12.566;2023-03-23T03:24:46;7.40;99.90
37410;DHT22;23275;48.914;12.566;2023-03-23T03:27:17;7.40;99.90
37410;DHT22;23275;48.914;12.566;2023-03-23T03:29:47;7.40;99.90
37410;DHT22;23275;48.914;12.566;2023-03-23T03:32:19;7.40;99.90
37410;DHT22;23275;48.914;12.566;2023-03-23T03:34:45;7.30;99.90
37410;DHT22;23275;48.914;12.566;2023-03-23T03:37:13;7.30;99.90
37410;DHT22;23275;48.914;12.566;2023-03-23T03:39:40;7.30;99.90
37410;DHT22;23275;48.914;12.566;2023-03-23T03:42:06;7.30;99.90
37410;DHT22;23275;48.914;12.566;2023-03-23T03:44:32;7.30;99.90
37410;DHT22;23275;48.914;12.566;2023-03-23T03:46:58;7.40;99.90
37410;DHT22;23275;48.914;12.566;2023-03-23T03:49:24;7.40;99.90
37410;DHT22;23275;48.914;12.566;2023-03-23T03:51:50;7.40;99.90
37410;DHT22;23275;48.914;12.566;2023-03-23T03:54:16;7.50;99.90
37410;DHT22;23275;48.914;12.566;2023-03-23T03:56:42;7.50;99.90
37410;DHT22;23275;48.914;12.566;2023-03-23T03:59:09;7.50;99.90
37410;DHT22;23275;48.914;12.566;2023-03-23T04:01:36;7.50;99.90
37410;DHT22;23275;48.914;12.566;2023-03-23T04:04:02;7.50;99.90
37410;DHT22;23275;48.914;12.566;2023-03-23T04:06:28;7.50;99.90
37410;DHT22;23275;48.914;12.566;2023-03-23T04:08:55;7.60;99.90
37410;DHT22;23275;48.914;12.566;2023-03-23T04:11:21;7.60;99.90
37410;DHT22;23275;48.914;12.566;2023-03-23T04:13:47;7.60;99.90
37410;DHT22;23275;48.914;12.566;2023-03-23T04:16:12;7.60;99.90
37410;DHT22;23275;48.914;12.566;2023-03-23T04:18:38;7.70;99.90
37410;DHT22;23275;48.914;12.566;2023-03-23T04:21:04;7.70;99.90
37410;DHT22;23275;48.914;12.566;2023-03-23T04:23:32;7.60;99.90
37410;DHT22;23275;48.914;12.566;2023-03-23T04:25:59;7.60;99.90
37410;DHT22;23275;48.914;12.566;2023-03-23T04:28:25;7.60;99.90
37410;DHT22;23275;48.914;12.566;2023-03-23T04:30:52;7.60;99.90
37410;DHT22;23275;48.914;12.566;2023-03-23T04:33:22;7.60;99.90
37410;DHT22;23275;48.914;12.566;2023-03-23T04:35:50;7.60;99.90
37410;DHT22;23275;48.914;12.566;2023-03-23T04:38:17;7.60;99.90
37410;DHT22;23275;48.914;12.566;2023-03-23T04:40:46;7.60;99.90
37410;DHT22;23275;48.914;12.566;2023-03-23T04:43:13;7.50;99.90
37410;DHT22;23275;48.914;12.566;2023-03-23T04:45:40;7.50;99.90
37410;DHT22;23275;48.914;12.566;2023-03-23T04:48:10;7.50;99.90
37410;DHT22;23275;48.914;12.566;2023-03-23T04:50:36;7.50;99.90
37410;DHT22;23275;48.914;12.566;2023-03-23T04:53:03;7.60;99.90
37410;DHT22;23275;48.914;12.566;2023-03-23T04:55:33;7.70;99.90
37410;DHT22;23275;48.914;12.566;2023-03-23T04:58:04;7.70;99.90
37410;DHT22;23275;48.914;12.566;2023-03-23T05:00:31;7.70;99.90
37410;DHT22;23275;48.914;12.566;2023-03-23T05:02:57;7.70;99.90
37410;DHT22;23275;48.914;12.566;2023-03-23T05:05:24;7.80;99.90
37410;DHT22;23275;48.914;12.566;2023-03-23T05:07:50;7.80;99.90
37410;DHT22;23275;48.914;12.566;2023-03-23T05:10:16;7.80;99.90
37410;DHT22;23275;48.914;12.566;2023-03-23T05:12:43;7.70;99.90
37410;DHT22;23275;48.914;12.566;2023-03-23T05:15:10;7.70;99.90
37410;DHT22;23275;48.914;12.566;2023-03-23T05:17:36;7.70;99.90
37410;DHT22;23275;48.914;12.566;2023-03-23T05:20:04;7.60;99.90
37410;DHT22;23275;48.914;12.566;2023-03-23T05:22:31;7.50;99.90
37410;DHT22;23275;48.914;12.566;2023-03-23T05:25:00;7.50;99.90
37410;DHT22;23275;48.914;12.566;2023-03-23T05:27:28;7.50;99.90
37410;DHT22;23275;48.914;12.566;2023-03-23T05:29:56;7.60;99.90
37410;DHT22;23275;48.914;12.566;2023-03-23T05:32:27;7.50;99.90
37410;DHT22;23275;48.914;12.566;2023-03-23T05:34:55;7.50;99.90
37410;DHT22;23275;48.914;12.566;2023-03-23T05:37:22;7.40;99.90
37410;DHT22;23275;48.914;12.566;2023-03-23T05:39:47;7.50;99.90
37410;DHT22;23275;48.914;12.566;2023-03-23T05:42:13;7.60;99.90
37410;DHT22;23275;48.914;12.566;2023-03-23T05:44:38;7.70;99.90
37410;DHT22;23275;48.914;12.566;2023-03-23T05:47:04;7.80;99.90
37410;DHT22;23275;48.914;12.566;2023-03-23T05:49:30;7.90;99.90
37410;DHT22;23275;48.914;12.566;2023-03-23T05:51:56;8.00;99.90
37410;DHT22;23275;48.914;12.566;2023-03-23T05:54:21;8.10;99.90
37410;DHT22;23275;48.914;12.566;2023-03-23T05:56:47;8.20;99.90
37410;DHT22;23275;48.914;12.566;2023-03-23T05:59:14;8.20;99.90
37410;DHT22;23275;48.914;12.566;2023-03-23T06:01:39;8.20;99.90
37410;DHT22;23275;48.914;12.566;2023-03-23T06:04:05;8.20;99.90
37410;DHT22;23275;48.914;12.566;2023-03-23T06:06:31;8.20;99.90
37410;DHT22;23275;48.914;12.566;2023-03-23T06:08:57;8.20;99.90
37410;DHT22;23275;48.914;12.566;2023-03-23T06:11:24;8.20;99.90
37410;DHT22;23275;48.914;12.566;2023-03-23T06:13:50;8.10;99.90
37410;DHT22;23275;48.914;12.566;2023-03-23T06:16:16;8.10;99.90
37410;DHT22;23275;48.914;12.566;2023-03-23T06:18:42;8.00;99.90
37410;DHT22;23275;48.914;12.566;2023-03-23T06:21:09;8.00;99.90
37410;DHT22;23275;48.914;12.566;2023-03-23T06:23:35;8.10;99.90
37410;DHT22;23275;48.914;12.566;2023-03-23T06:26:06;8.10;99.90
37410;DHT22;23275;48.914;12.566;2023-03-23T06:28:33;8.10;99.90
37410;DHT22;23275;48.914;12.566;2023-03-23T06:31:03;8.20;99.90
37410;DHT22;23275;48.914;12.566;2023-03-23T06:33:35;8.20;99.90
37410;DHT22;23275;48.914;12.566;2023-03-23T06:36:01;8.20;99.90
37410;DHT22;23275;48.914;12.566;2023-03-23T06:38:27;8.20;99.90
37410;DHT22;23275;48.914;12.566;2023-03-23T06:40:53;8.20;99.90
37410;DHT22;23275;48.914;12.566;2023-03-23T06:43:19;8.20;99.90
37410;DHT22;23275;48.914;12.566;2023-03-23T06:45:45;8.20;99.90
37410;DHT22;23275;48.914;12.566;2023-03-23T06:48:11;8.30;99.90
37410;DHT22;23275;48.914;12.566;2023-03-23T06:50:37;8.30;99.90
37410;DHT22;23275;48.914;12.566;2023-03-23T06:53:03;8.40;99.90
37410;DHT22;23275;48.914;12.566;2023-03-23T06:55:28;8.50;99.90
37410;DHT22;23275;48.914;12.566;2023-03-23T06:57:54;8.60;99.90
37410;DHT22;23275;48.914;12.566;2023-03-23T07:00:20;8.80;99.90
37410;DHT22;23275;48.914;12.566;2023-03-23T07:02:45;9.00;99.90
37410;DHT22;23275;48.914;12.566;2023-03-23T07:05:12;9.00;99.90
37410;DHT22;23275;48.914;12.566;2023-03-23T07:07:39;9.10;99.90
37410;DHT22;23275;48.914;12.566;2023-03-23T07:10:06;9.20;99.90
37410;DHT22;23275;48.914;12.566;2023-03-23T07:12:32;9.30;99.90
37410;DHT22;23275;48.914;12.566;2023-03-23T07:14:58;9.50;99.90
37410;DHT22;23275;48.914;12.566;2023-03-23T07:17:24;9.90;99.90
37410;DHT22;23275;48.914;12.566;2023-03-23T07:19:50;10.30;99.90
37410;DHT22;23275;48.914;12.566;2023-03-23T07:22:16;10.70;99.90
37410;DHT22;23275;48.914;12.566;2023-03-23T07:24:41;10.80;99.90
37410;DHT22;23275;48.914;12.566;2023-03-23T07:27:07;10.70;99.90
37410;DHT22;23275;48.914;12.566;2023-03-23T07:29:33;10.50;99.90
37410;DHT22;23275;48.914;12.566;2023-03-23T07:32:01;10.40;99.90
37410;DHT22;23275;48.914;12.566;2023-03-23T07:34:27;10.30;99.90
37410;DHT22;23275;48.914;12.566;2023-03-23T07:36:52;10.30;99.90
37410;DHT22;23275;48.914;12.566;2023-03-23T07:39:19;10.20;99.90
37410;DHT22;23275;48.914;12.566;2023-03-23T07:41:44;10.20;99.90
37410;DHT22;23275;48.914;12.566;2023-03-23T07:44:10;10.20;99.90
37410;DHT22;23275;48.914;12.566;2023-03-23T07:46:35;10.20;99.90
37410;DHT22;23275;48.914;12.566;2023-03-23T07:49:01;10.10;99.90
37410;DHT22;23275;48.914;12.566;2023-03-23T07:51:31;10.10;99.90
37410;DHT22;23275;48.914;12.566;2023-03-23T07:53:57;10.10;99.90
37410;DHT22;23275;48.914;12.566;2023-03-23T07:56:22;10.10;99.90
37410;DHT22;23275;48.914;12.566;2023-03-23T07:58:48;10.20;99.90
37410;DHT22;23275;48.914;12.566;2023-03-23T08:01:15;10.20;99.90
37410;DHT22;23275;48.914;12.566;2023-03-23T08:03:41;10.40;99.90
37410;DHT22;23275;48.914;12.566;2023-03-23T08:06:08;10.50;99.90
37410;DHT22;23275;48.914;12.566;2023-03-23T08:08:34;10.70;99.90
37410;DHT22;23275;48.914;12.566;2023-03-23T08:11:00;11.00;99.90
37410;DHT22;23275;48.914;12.566;2023-03-23T08:13:26;11.00;99.90
37410;DHT22;23275;48.914;12.566;2023-03-23T08:15:52;10.90;99.90
37410;DHT22;23275;48.914;12.566;2023-03-23T08:18:18;10.90;99.90
37410;DHT22;23275;48.914;12.566;2023-03-23T08:20:44;11.00;99.90
37410;DHT22;23275;48.914;12.566;2023-03-23T08:23:13;11.10;99.90
37410;DHT22;23275;48.914;12.566;2023-03-23T08:25:41;11.30;99.90
37410;DHT22;23275;48.914;12.566;2023-03-23T08:28:08;11.30;99.90
37410;DHT22;23275;48.914;12.566;2023-03-23T08:30:35;11.40;99.90
37410;DHT22;23275;48.914;12.566;2023-03-23T08:33:02;11.40;99.90
37410;DHT22;23275;48.914;12.566;2023-03-23T08:35:27;11.40;99.90
37410;DHT22;23275;48.914;12.566;2023-03-23T08:37:53;11.40;99.90
37410;DHT22;23275;48.914;12.566;2023-03-23T08:40:22;11.50;99.90
37410;DHT22;23275;48.914;12.566;2023-03-23T08:42:49;11.50;99.90
37410;DHT22;23275;48.914;12.566;2023-03-23T08:45:19;11.50;99.90
37410;DHT22;23275;48.914;12.566;2023-03-23T08:47:45;11.50;99.90
37410;DHT22;23275;48.914;12.566;2023-03-23T08:50:15;11.60;99.90
37410;DHT22;23275;48.914;12.566;2023-03-23T08:52:41;11.70;99.90
37410;DHT22;23275;48.914;12.566;2023-03-23T08:55:07;11.80;99.90
37410;DHT22;23275;48.914;12.566;2023-03-23T08:57:35;11.90;99.90
37410;DHT22;23275;48.914;12.566;2023-03-23T09:00:05;12.00;99.90
37410;DHT22;23275;48.914;12.566;2023-03-23T09:02:47;12.10;99.90
37410;DHT22;23275;48.914;12.566;2023-03-23T09:05:14;12.30;99.90
37410;DHT22;23275;48.914;12.566;2023-03-23T09:07:45;12.50;99.90
37410;DHT22;23275;48.914;12.566;2023-03-23T09:10:11;12.70;99.90
37410;DHT22;23275;48.914;12.566;2023-03-23T09:12:38;13.10;99.90
37410;DHT22;23275;48.914;12.566;2023-03-23T09:15:05;13.50;99.90
37410;DHT22;23275;48.914;12.566;2023-03-23T09:17:43;14.10;99.90
37410;DHT22;23275;48.914;12.566;2023-03-23T09:20:11;15.10;99.90
37410;DHT22;23275;48.914;12.566;2023-03-23T09:22:39;15.80;99.90
37410;DHT22;23275;48.914;12.566;2023-03-23T09:25:06;17.30;99.90
37410;DHT22;23275;48.914;12.566;2023-03-23T09:27:32;18.50;99.90
37410;DHT22;23275;48.914;12.566;2023-03-23T09:29:58;18.90;99.90
37410;DHT22;23275;48.914;12.566;2023-03-23T09:32:24;19.00;99.90
37410;DHT22;23275;48.914;12.566;2023-03-23T09:34:49;19.40;99.90
37410;DHT22;23275;48.914;12.566;2023-03-23T09:37:16;19.50;99.90
37410;DHT22;23275;48.914;12.566;2023-03-23T09:39:42;17.80;99.90
37410;DHT22;23275;48.914;12.566;2023-03-23T09:47:59;16.00;99.90
37410;DHT22;23275;48.914;12.566;2023-03-23T09:50:28;15.80;99.90
37410;DHT22;23275;48.914;12.566;2023-03-23T09:53:26;15.60;99.90
37410;DHT22;23275;48.914;12.566;2023-03-23T09:55:53;15.50;99.90
37410;DHT22;23275;48.914;12.566;2023-03-23T09:58:39;15.80;99.90
37410;DHT22;23275;48.914;12.566;2023-03-23T10:01:28;16.20;99.90
37410;DHT22;23275;48.914;12.566;2023-03-23T10:04:13;16.70;99.90
37410;DHT22;23275;48.914;12.566;2023-03-23T10:06:40;17.20;99.90
37410;DHT22;23275;48.914;12.566;2023-03-23T10:09:09;17.20;99.90
37410;DHT22;23275;48.914;12.566;2023-03-23T10:14:39;17.10;99.90
37410;DHT22;23275;48.914;12.566;2023-03-23T10:19:42;16.70;99.90
37410;DHT22;23275;48.914;12.566;2023-03-23T10:22:11;16.70;99.90
37410;DHT22;23275;48.914;12.566;2023-03-23T10:24:51;17.00;99.90
37410;DHT22;23275;48.914;12.566;2023-03-23T10:27:36;17.10;99.90
37410;DHT22;23275;48.914;12.566;2023-03-23T10:32:40;16.60;99.90
37410;DHT22;23275;48.914;12.566;2023-03-23T10:35:18;16.50;99.90
37410;DHT22;23275;48.914;12.566;2023-03-23T10:37:51;16.40;99.90
37410;DHT22;23275;48.914;12.566;2023-03-23T10:40:22;16.30;99.90
37410;DHT22;23275;48.914;12.566;2023-03-23T10:42:49;16.30;99.90
37410;DHT22;23275;48.914;12.566;2023-03-23T10:45:21;16.20;99.90
37410;DHT22;23275;48.914;12.566;2023-03-23T10:48:23;16.20;99.90
37410;DHT22;23275;48.914;12.566;2023-03-23T10:50:54;16.10;99.90
37410;DHT22;23275;48.914;12.566;2023-03-23T10:53:25;16.00;99.90
37410;DHT22;23275;48.914;12.566;2023-03-23T10:55:53;16.10;99.90
37410;DHT22;23275;48.914;12.566;2023-03-23T10:58:26;16.30;99.90
37410;DHT22;23275;48.914;12.566;2023-03-23T11:00:54;16.40;99.90
37410;DHT22;23275;48.914;12.566;2023-03-23T11:03:24;16.60;99.90
37410;DHT22;23275;48.914;12.566;2023-03-23T11:06:00;16.70;99.90
37410;DHT22;23275;48.914;12.566;2023-03-23T11:08:33;16.80;99.90
37410;DHT22;23275;48.914;12.566;2023-03-23T11:11:10;16.90;99.90
37410;DHT22;23275;48.914;12.566;2023-03-23T11:13:41;16.90;99.90
37410;DHT22;23275;48.914;12.566;2023-03-23T11:16:10;16.90;99.90
37410;DHT22;23275;48.914;12.566;2023-03-23T11:18:39;17.10;99.90
37410;DHT22;23275;48.914;12.566;2023-03-23T11:21:06;17.20;99.90
37410;DHT22;23275;48.914;12.566;2023-03-23T11:23:35;17.30;99.90
37410;DHT22;23275;48.914;12.566;2023-03-23T11:26:14;17.70;99.90
37410;DHT22;23275;48.914;12.566;2023-03-23T11:28:55;18.00;99.90
37410;DHT22;23275;48.914;12.566;2023-03-23T11:31:28;18.40;99.90
37410;DHT22;23275;48.914;12.566;2023-03-23T11:34:01;18.60;99.90
37410;DHT22;23275;48.914;12.566;2023-03-23T11:36:33;18.80;99.90
37410;DHT22;23275;48.914;12.566;2023-03-23T11:39:00;18.90;99.90
37410;DHT22;23275;48.914;12.566;2023-03-23T11:41:34;19.00;99.90
37410;DHT22;23275;48.914;12.566;2023-03-23T11:44:03;19.30;99.90
37410;DHT22;23275;48.914;12.566;2023-03-23T11:46:33;19.50;99.90
37410;DHT22;23275;48.914;12.566;2023-03-23T11:49:08;19.70;99.90
37410;DHT22;23275;48.914;12.566;2023-03-23T11:51:45;19.80;99.90
37410;DHT22;23275;48.914;12.566;2023-03-23T11:54:26;19.70;99.90
37410;DHT22;23275;48.914;12.566;2023-03-23T11:56:54;19.70;99.90
37410;DHT22;23275;48.914;12.566;2023-03-23T11:59:32;19.80;99.90
37410;DHT22;23275;48.914;12.566;2023-03-23T12:15:40;21.00;99.90
37410;DHT22;23275;48.914;12.566;2023-03-23T12:20:56;21.10;99.90
37410;DHT22;23275;48.914;12.566;2023-03-23T12:23:34;21.00;98.80
37410;DHT22;23275;48.914;12.566;2023-03-23T12:26:28;20.80;98.50
37410;DHT22;23275;48.914;12.566;2023-03-23T12:35:05;20.50;99.90
37410;DHT22;23275;48.914;12.566;2023-03-23T12:37:48;20.80;99.40
37410;DHT22;23275;48.914;12.566;2023-03-23T12:48:02;20.20;98.20
37410;DHT22;23275;48.914;12.566;2023-03-23T12:50:40;20.00;98.70
37410;DHT22;23275;48.914;12.566;2023-03-23T12:53:23;19.90;99.90
37410;DHT22;23275;48.914;12.566;2023-03-23T12:56:13;19.70;98.50
37410;DHT22;23275;48.914;12.566;2023-03-23T12:58:46;19.50;97.90
37410;DHT22;23275;48.914;12.566;2023-03-23T13:01:20;19.40;97.40
37410;DHT22;23275;48.914;12.566;2023-03-23T13:03:54;19.30;97.80
37410;DHT22;23275;48.914;12.566;2023-03-23T13:06:29;19.10;97.10
37410;DHT22;23275;48.914;12.566;2023-03-23T13:09:24;19.10;97.70
37410;DHT22;23275;48.914;12.566;2023-03-23T13:11:54;18.90;98.20
37410;DHT22;23275;48.914;12.566;2023-03-23T13:28:30;19.10;97.90
37410;DHT22;23275;48.914;12.566;2023-03-23T13:31:02;19.10;97.60
37410;DHT22;23275;48.914;12.566;2023-03-23T13:33:31;19.10;97.80
37410;DHT22;23275;48.914;12.566;2023-03-23T13:36:11;19.00;97.20
37410;DHT22;23275;48.914;12.566;2023-03-23T13:38:37;18.90;97.90
37410;DHT22;23275;48.914;12.566;2023-03-23T13:41:09;18.80;97.60
37410;DHT22;23275;48.914;12.566;2023-03-23T13:43:36;18.60;98.20
37410;DHT22;23275;48.914;12.566;2023-03-23T13:48:50;18.60;98.30
37410;DHT22;23275;48.914;12.566;2023-03-23T13:54:23;18.60;98.70
37410;DHT22;23275;48.914;12.566;2023-03-23T13:57:00;18.60;98.30
37410;DHT22;23275;48.914;12.566;2023-03-23T14:01:54;18.60;98.20
37410;DHT22;23275;48.914;12.566;2023-03-23T14:04:21;18.40;98.60
37410;DHT22;23275;48.914;12.566;2023-03-23T14:06:49;18.30;98.50
37410;DHT22;23275;48.914;12.566;2023-03-23T14:09:31;18.20;99.40
37410;DHT22;23275;48.914;12.566;2023-03-23T14:12:01;18.20;99.80
37410;DHT22;23275;48.914;12.566;2023-03-23T14:14:39;18.00;98.80
37410;DHT22;23275;48.914;12.566;2023-03-23T14:17:21;17.90;99.20
37410;DHT22;23275;48.914;12.566;2023-03-23T14:19:50;17.80;98.80
37410;DHT22;23275;48.914;12.566;2023-03-23T14:22:23;17.60;99.00
37410;DHT22;23275;48.914;12.566;2023-03-23T14:24:53;17.50;99.90
37410;DHT22;23275;48.914;12.566;2023-03-23T14:27:24;17.50;99.90
37410;DHT22;23275;48.914;12.566;2023-03-23T14:30:00;17.40;99.90
37410;DHT22;23275;48.914;12.566;2023-03-23T14:32:29;17.30;99.90
37410;DHT22;23275;48.914;12.566;2023-03-23T14:34:56;17.30;99.80
37410;DHT22;23275;48.914;12.566;2023-03-23T14:37:23;17.20;99.90
37410;DHT22;23275;48.914;12.566;2023-03-23T14:39:52;17.20;99.90
37410;DHT22;23275;48.914;12.566;2023-03-23T14:42:28;17.10;99.90
37410;DHT22;23275;48.914;12.566;2023-03-23T14:44:54;17.10;99.90
37410;DHT22;23275;48.914;12.566;2023-03-23T14:47:25;17.00;99.90
37410;DHT22;23275;48.914;12.566;2023-03-23T14:49:56;17.00;99.90
37410;DHT22;23275;48.914;12.566;2023-03-23T14:52:27;17.10;99.90
37410;DHT22;23275;48.914;12.566;2023-03-23T14:54:53;17.10;99.90
37410;DHT22;23275;48.914;12.566;2023-03-23T14:59:51;17.20;99.90
37410;DHT22;23275;48.914;12.566;2023-03-23T15:02:32;17.30;99.90
37410;DHT22;23275;48.914;12.566;2023-03-23T15:05:06;17.30;99.90
37410;DHT22;23275;48.914;12.566;2023-03-23T15:07:36;17.30;99.90
37410;DHT22;23275;48.914;12.566;2023-03-23T15:10:07;17.30;99.90
37410;DHT22;23275;48.914;12.566;2023-03-23T15:12:34;17.30;99.90
37410;DHT22;23275;48.914;12.566;2023-03-23T15:15:03;17.30;99.90
37410;DHT22;23275;48.914;12.566;2023-03-23T15:17:33;17.30;99.90
37410;DHT22;23275;48.914;12.566;2023-03-23T15:20:08;17.20;99.90
37410;DHT22;23275;48.914;12.566;2023-03-23T15:22:34;17.10;99.90
37410;DHT22;23275;48.914;12.566;2023-03-23T15:25:17;17.00;99.90
37410;DHT22;23275;48.914;12.566;2023-03-23T15:27:50;17.00;99.90
37410;DHT22;23275;48.914;12.566;2023-03-23T15:30:36;17.00;99.90
37410;DHT22;23275;48.914;12.566;2023-03-23T15:33:12;17.00;99.90
37410;DHT22;23275;48.914;12.566;2023-03-23T15:35:41;17.00;99.90
37410;DHT22;23275;48.914;12.566;2023-03-23T15:38:25;17.00;99.90
37410;DHT22;23275;48.914;12.566;2023-03-23T15:40:56;16.90;99.90
37410;DHT22;23275;48.914;12.566;2023-03-23T15:43:30;17.00;99.90
37410;DHT22;23275;48.914;12.566;2023-03-23T15:48:29;16.90;99.90
37410;DHT22;23275;48.914;12.566;2023-03-23T15:50:56;17.00;99.90
37410;DHT22;23275;48.914;12.566;2023-03-23T15:53:36;17.00;99.90
37410;DHT22;23275;48.914;12.566;2023-03-23T15:56:04;16.90;99.90
37410;DHT22;23275;48.914;12.566;2023-03-23T15:58:31;16.90;99.90
37410;DHT22;23275;48.914;12.566;2023-03-23T16:00:59;17.00;99.90
37410;DHT22;23275;48.914;12.566;2023-03-23T16:03:30;17.00;99.90
37410;DHT22;23275;48.914;12.566;2023-03-23T16:05:58;16.90;99.90
37410;DHT22;23275;48.914;12.566;2023-03-23T16:08:25;16.90;99.90
37410;DHT22;23275;48.914;12.566;2023-03-23T16:10:51;16.90;99.90
37410;DHT22;23275;48.914;12.566;2023-03-23T16:13:17;16.80;99.90
37410;DHT22;23275;48.914;12.566;2023-03-23T16:15:43;16.80;99.90
37410;DHT22;23275;48.914;12.566;2023-03-23T16:18:19;16.70;99.90
37410;DHT22;23275;48.914;12.566;2023-03-23T16:20:47;16.70;99.90
37410;DHT22;23275;48.914;12.566;2023-03-23T16:23:13;16.60;99.90
37410;DHT22;23275;48.914;12.566;2023-03-23T16:25:38;16.60;99.90
37410;DHT22;23275;48.914;12.566;2023-03-23T16:28:04;16.50;99.90
37410;DHT22;23275;48.914;12.566;2023-03-23T16:30:33;16.50;99.90
37410;DHT22;23275;48.914;12.566;2023-03-23T16:32:59;16.40;99.90
37410;DHT22;23275;48.914;12.566;2023-03-23T16:35:25;16.30;99.90
37410;DHT22;23275;48.914;12.566;2023-03-23T16:37:53;16.20;99.90
37410;DHT22;23275;48.914;12.566;2023-03-23T16:40:19;16.10;99.90
37410;DHT22;23275;48.914;12.566;2023-03-23T16:42:46;15.90;99.90
37410;DHT22;23275;48.914;12.566;2023-03-23T16:45:13;15.80;99.90
37410;DHT22;23275;48.914;12.566;2023-03-23T16:47:39;15.70;99.90
37410;DHT22;23275;48.914;12.566;2023-03-23T16:50:07;15.70;99.90
37410;DHT22;23275;48.914;12.566;2023-03-23T16:52:37;15.70;99.90
37410;DHT22;23275;48.914;12.566;2023-03-23T16:55:04;15.70;99.90
37410;DHT22;23275;48.914;12.566;2023-03-23T16:57:31;15.60;99.90
37410;DHT22;23275;48.914;12.566;2023-03-23T16:59:59;15.60;99.90
37410;DHT22;23275;48.914;12.566;2023-03-23T17:02:25;15.50;99.90